Murphy's Hourly Summary for Monday, March 13, 2017
Hour Temp
(f)
RH
(%)
Solar Rad.
(MJ/m2)
Rainfall
(in)
Wind
(mph)
3/13/2017 12:00 AM 47 78 0 0 0.76
3/13/2017 1:00 AM 48 77 0 0 2.1
3/13/2017 2:00 AM 48 79 0 0 2.05
3/13/2017 3:00 AM 48 80 0 0 1.72
3/13/2017 4:00 AM 48 80 0 0 1.06
3/13/2017 5:00 AM 48 81 0 0 1.02
3/13/2017 6:00 AM 47 87 0 0 1.21
3/13/2017 7:00 AM 48 91 0 0 1.07
3/13/2017 8:00 AM 48 89 0 0 0.5
3/13/2017 9:00 AM 48 86 0.07 0 0.51
3/13/2017 10:00 AM 49 81 0.24 0 1.12
3/13/2017 11:00 AM 51 72 0.96 0 2.88
3/13/2017 12:00 PM 52 69 0.97 0 3.86
3/13/2017 1:00 PM 54 62 1.58 0 4.31
3/13/2017 2:00 PM 56 49 3.03 0 4.41
3/13/2017 3:00 PM 60 41 3.05 0 5.45
3/13/2017 4:00 PM 61 32 2.88 0 6.06
3/13/2017 5:00 PM 61 33 2.34 0 6.26
3/13/2017 6:00 PM 60 30 1.33 0 6
3/13/2017 7:00 PM 57 28 0.19 0 5.84
3/13/2017 8:00 PM 53 28 0.03 0 4.92
3/13/2017 9:00 PM 50 30 0 0 4.36
3/13/2017 10:00 PM 48 33 0 0 3.75
3/13/2017 11:00 PM 46 38 0 0 1.76
Data Summary 51 60 16.67 0.00 3.04